Time;durP1;ratioP1;P1;durP2;ratioP2;P2;SDS_P1;SDS_P2;PMS_P1;PMS_P2;Temp;Humidity;BMP_temperature;BMP_pressure;BME280_temperature;BME280_humidity;BME280_pressure;Samples;Min_cycle;Max_cycle;Signal;HPM_P1;HPM_P2
2023/05/15 00:01:47;;;;;;;28.50;25.50;;;;;;;13.72;80.30;101404.63;5071575;28;20028;-65
2023/05/15 00:04:12;;;;;;;27.45;24.38;;;;;;;13.84;79.70;101404.63;5071963;28;20086;-65
2023/05/15 00:06:38;;;;;;;29.25;26.33;;;;;;;13.79;79.35;101397.88;5103721;28;20025;-65
2023/05/15 00:09:03;;;;;;;29.40;26.25;;;;;;;13.80;79.11;101392.44;5071915;28;20057;-65
2023/05/15 00:11:28;;;;;;;28.90;25.83;;;;;;;13.92;79.17;101401.44;5071362;28;20024;-65
2023/05/15 00:13:54;;;;;;;28.50;25.50;;;;;;;13.69;79.60;101388.78;5071556;28;20024;-65
2023/05/15 00:16:21;;;;;;;30.27;26.35;;;;;;;13.72;79.37;101388.56;5071183;28;20025;-65
2023/05/15 00:18:47;;;;;;;29.40;26.45;;;;;;;13.60;79.74;101388.44;5071706;28;20027;-65
2023/05/15 00:21:12;;;;;;;30.58;27.52;;;;;;;13.42;80.69;101400.34;5070443;28;20468;-65
2023/05/15 00:23:37;;;;;;;30.67;27.58;;;;;;;13.44;80.78;101393.06;5070222;28;20025;-66
2023/05/15 00:26:03;;;;;;;29.95;26.92;;;;;;;13.46;81.04;101401.84;5071639;28;20021;-65
2023/05/15 00:28:29;;;;;;;30.58;27.30;;;;;;;13.28;81.75;101400.41;5071482;28;20429;-65
2023/05/15 00:30:55;;;;;;;30.48;27.38;;;;;;;13.29;81.11;101384.25;5071341;28;20035;-65
2023/05/15 00:33:20;;;;;;;31.02;27.92;;;;;;;13.15;81.48;101386.97;5071327;28;20052;-65
2023/05/15 00:35:45;;;;;;;31.90;28.52;;;;;;;13.16;81.01;101389.53;5071460;28;20387;-66
2023/05/15 00:38:11;;;;;;;31.65;28.48;;;;;;;13.25;81.16;101380.09;5071142;28;20031;-64
2023/05/15 00:40:38;;;;;;;31.08;27.75;;;;;;;13.22;80.82;101377.59;5071473;28;20097;-66
2023/05/15 00:43:04;;;;;;;36.80;30.08;;;;;;;13.10;81.26;101384.59;5070136;28;20024;-65
2023/05/15 00:45:31;;;;;;;33.45;30.25;;;;;;;13.19;80.73;101375.13;5071295;28;20538;-65
2023/05/15 00:47:57;;;;;;;32.80;29.25;;;;;;;13.16;80.88;101378.00;5072973;28;20085;-65
2023/05/15 00:50:23;;;;;;;32.50;29.20;;;;;;;13.15;80.92;101385.16;5075198;28;20028;-65
2023/05/15 00:52:49;;;;;;;31.73;28.52;;;;;;;13.21;80.49;101378.56;5074697;28;20024;-65
2023/05/15 00:55:15;;;;;;;33.22;29.98;;;;;;;13.18;80.40;101379.63;5075156;28;20074;-65
2023/05/15 00:57:42;;;;;;;33.88;30.25;;;;;;;13.09;80.67;101374.88;5074936;28;20112;-65
2023/05/15 01:00:09;;;;;;;33.60;30.08;;;;;;;13.12;80.64;101373.81;5075013;28;20047;-66
2023/05/15 01:02:35;;;;;;;32.95;29.65;;;;;;;12.96;81.03;101364.13;5107534;28;20029;-65
2023/05/15 01:05:02;;;;;;;32.92;29.58;;;;;;;13.04;80.42;101368.97;5074981;28;20017;-66
2023/05/15 01:07:36;;;;;;;34.83;31.25;;;;;;;12.84;81.22;101367.59;5074449;28;20020;-66
2023/05/15 01:10:03;;;;;;;34.83;31.13;;;;;;;12.72;81.46;101363.88;5074889;28;20827;-65
2023/05/15 01:12:30;;;;;;;33.35;30.15;;;;;;;12.77;81.61;101365.41;5074630;28;20468;-65
2023/05/15 01:14:56;;;;;;;34.42;30.88;;;;;;;12.79;81.38;101368.81;5074585;28;20059;-66
2023/05/15 01:17:22;;;;;;;35.13;31.08;;;;;;;12.67;81.86;101349.97;5073177;28;21111;-65
2023/05/15 01:19:49;;;;;;;35.40;31.77;;;;;;;12.76;81.65;101367.22;5074844;28;20418;-66
2023/05/15 01:22:23;;;;;;;36.13;31.25;;;;;;;12.65;81.96;101369.72;5073640;28;20035;-66
2023/05/15 01:25:13;;;;;;;35.53;31.65;;;;;;;12.69;82.27;101366.75;5074481;28;20032;-66
2023/05/15 01:27:49;;;;;;;35.58;31.67;;;;;;;12.78;81.89;101367.13;5074043;28;20039;-66
2023/05/15 01:30:39;;;;;;;37.40;32.55;;;;;;;12.82;81.59;101369.47;5072896;28;20048;-66
2023/05/15 01:33:12;;;;;;;35.58;31.70;;;;;;;12.61;81.66;101362.84;5073889;28;20040;-65
2023/05/15 01:35:45;;;;;;;37.75;33.78;;;;;;;12.66;82.03;101360.75;5074095;28;20032;-65
2023/05/15 01:38:32;;;;;;;35.67;31.92;;;;;;;12.56;82.11;101364.94;5073724;28;20120;-65
2023/05/15 01:41:15;;;;;;;36.58;32.85;;;;;;;12.66;81.77;101364.28;5072818;28;20032;-66
2023/05/15 01:43:44;;;;;;;37.60;33.40;;;;;;;12.43;81.94;101344.38;5072653;28;20036;-65
2023/05/15 01:46:16;;;;;;;37.97;34.08;;;;;;;12.42;82.71;101355.16;5073668;28;20029;-66
2023/05/15 01:48:44;;;;;;;38.25;34.33;;;;;;;12.47;82.65;101355.72;5106724;28;20111;-65
2023/05/15 01:51:12;;;;;;;37.65;33.50;;;;;;;12.47;82.28;101342.38;5073881;28;20055;-65
2023/05/15 01:53:39;;;;;;;40.03;35.85;;;;;;;12.37;82.72;101331.44;5073605;28;20027;-65
2023/05/15 01:56:08;;;;;;;37.22;33.33;;;;;;;12.30;82.74;101343.44;5073788;28;20085;-65
2023/05/15 01:58:36;;;;;;;;;;;;;;;12.77;80.98;101344.06;5074295;28;20388;-66
2023/05/15 02:01:02;;;;;;;37.50;33.28;;;;;;;12.48;82.43;101341.44;5073234;28;19912;-66
2023/05/15 02:03:28;;;;;;;37.10;33.28;;;;;;;12.23;82.51;101334.94;5072594;28;20081;-65
2023/05/15 02:05:56;;;;;;;38.10;34.10;;;;;;;12.41;82.13;101340.09;5064148;28;20024;-66
2023/05/15 02:08:27;;;;;;;37.85;34.15;;;;;;;12.49;81.98;101319.97;5073087;28;20391;-66
2023/05/15 02:10:57;;;;;;;40.55;36.35;;;;;;;12.34;82.48;101336.97;5073126;28;20037;-66
2023/05/15 02:13:25;;;;;;;39.38;35.03;;;;;;;12.24;82.79;101323.34;5073252;28;20028;-65
2023/05/15 02:15:50;;;;;;;38.97;35.03;;;;;;;12.41;82.36;101332.97;5073249;28;20037;-66
2023/05/15 02:18:18;;;;;;;40.35;35.28;;;;;;;12.30;82.79;101327.44;5073323;28;20394;-66
2023/05/15 02:20:43;;;;;;;40.10;35.80;;;;;;;12.35;82.45;101336.00;5073574;28;20169;-66
2023/05/15 02:23:11;;;;;;;40.00;35.83;;;;;;;12.23;83.18;101336.75;5072298;28;20099;-66
2023/05/15 02:26:07;;;;;;;40.35;36.25;;;;;;;12.40;82.81;101333.06;5072363;28;20032;-65
2023/05/15 02:29:09;;;;;;;40.03;35.72;;;;;;;12.50;82.65;101332.38;5093719;28;20037;-66
2023/05/15 02:32:02;;;;;;;41.47;37.08;;;;;;;12.39;82.54;101334.00;5072888;28;20056;-66
2023/05/15 02:34:54;;;;;;;42.08;37.45;;;;;;;12.51;82.78;101349.25;5092568;28;20055;-66
2023/05/15 02:37:26;;;;;;;43.13;38.67;;;;;;;12.39;82.77;101348.22;5072158;28;20459;-66
2023/05/15 02:39:58;;;;;;;47.00;41.30;;;;;;;12.13;83.34;101349.81;5072634;28;20029;-65
2023/05/15 02:42:25;;;;;;;46.03;40.90;;;;;;;12.17;83.53;101355.81;5072803;28;20032;-65
2023/05/15 02:44:53;;;;;;;45.17;40.13;;;;;;;11.97;84.28;101343.69;5071240;28;20033;-66
2023/05/15 02:47:24;;;;;;;47.42;40.33;;;;;;;12.00;84.20;101352.41;5072796;28;20103;-65
2023/05/15 02:49:52;;;;;;;45.78;41.03;;;;;;;11.88;84.93;101350.44;5073054;28;20098;-66
2023/05/15 02:52:20;;;;;;;48.85;42.72;;;;;;;12.01;85.17;101351.44;5072220;28;20024;-65
2023/05/15 02:54:46;;;;;;;46.40;41.60;;;;;;;11.90;85.23;101337.03;5072754;28;20028;-66
2023/05/15 02:57:11;;;;;;;48.25;42.92;;;;;;;11.86;84.97;101346.19;5071645;28;20073;-66
2023/05/15 02:59:37;;;;;;;47.92;42.72;;;;;;;11.93;85.09;101345.69;5072628;28;20035;-65
2023/05/15 03:02:02;;;;;;;46.92;41.95;;;;;;;11.90;85.07;101348.56;5071298;28;20028;-65
2023/05/15 03:04:28;;;;;;;47.55;42.75;;;;;;;11.78;85.21;101335.94;5072704;28;20379;-66
2023/05/15 03:06:56;;;;;;;48.70;43.67;;;;;;;11.79;85.14;101342.97;5071974;28;20035;-66
2023/05/15 03:09:21;;;;;;;48.30;43.13;;;;;;;11.79;85.26;101340.31;5072151;28;20032;-66
2023/05/15 03:11:46;;;;;;;52.28;44.78;;;;;;;11.73;85.67;101338.88;5072458;28;20086;-65
2023/05/15 03:14:12;;;;;;;49.67;44.25;;;;;;;11.77;85.34;101339.56;5072222;28;20036;-65
2023/05/15 03:16:37;;;;;;;50.55;44.78;;;;;;;11.77;85.36;101337.75;5071051;28;20036;-65
2023/05/15 03:19:03;;;;;;;49.17;43.13;;;;;;;11.81;85.15;101339.28;5053991;28;20038;-66
2023/05/15 03:21:33;;;;;;;49.33;43.78;;;;;;;11.77;85.26;101332.44;5071325;28;20032;-66
2023/05/15 03:23:59;;;;;;;50.45;45.05;;;;;;;11.75;85.42;101338.78;5070890;28;20031;-65
2023/05/15 03:26:27;;;;;;;49.88;44.50;;;;;;;11.64;85.84;101325.25;5070931;28;20028;-66
2023/05/15 03:28:55;;;;;;;51.45;46.13;;;;;;;11.73;85.14;101338.00;5072392;28;20020;-65
2023/05/15 03:31:22;;;;;;;52.17;46.40;;;;;;;11.60;85.76;101329.91;5072295;28;20451;-66
2023/05/15 03:33:50;;;;;;;49.88;44.55;;;;;;;11.58;86.22;101334.47;5072007;28;20053;-65
2023/05/15 03:36:15;;;;;;;53.35;46.83;;;;;;;11.50;85.94;101329.59;5072030;28;20050;-66
2023/05/15 03:38:42;;;;;;;54.85;47.47;;;;;;;11.57;85.69;101333.59;5070478;28;20021;-66
2023/05/15 03:41:08;;;;;;;54.50;46.97;;;;;;;11.43;86.18;101325.56;5072386;28;20020;-66
2023/05/15 03:43:33;;;;;;;52.28;46.25;;;;;;;11.52;86.33;101319.69;5070818;28;20040;-66
2023/05/15 03:45:59;;;;;;;51.53;46.03;;;;;;;11.47;86.07;101315.59;5070784;28;20020;-66
2023/05/15 03:48:24;;;;;;;53.67;47.35;;;;;;;11.42;85.68;101318.53;5071975;28;20468;-65
2023/05/15 03:50:51;;;;;;;54.58;45.42;;;;;;;11.52;85.62;101318.84;5072015;28;20384;-66
2023/05/15 03:53:18;;;;;;;55.85;47.72;;;;;;;11.49;86.08;101325.22;5071415;28;20441;-66
2023/05/15 03:55:44;;;;;;;55.70;48.53;;;;;;;11.48;85.25;101312.00;5072066;28;20032;-66
2023/05/15 03:58:09;;;;;;;52.15;46.35;;;;;;;11.48;85.41;101310.19;5104639;28;20028;-65
2023/05/15 04:00:35;;;;;;;53.22;47.40;;;;;;;11.53;85.63;101328.53;5071913;28;20551;-65
2023/05/15 04:03:00;;;;;;;56.60;49.80;;;;;;;11.34;85.88;101326.13;5071649;28;20107;-66
2023/05/15 04:05:26;;;;;;;53.50;47.67;;;;;;;11.42;85.80;101323.88;5071693;28;20086;-65
2023/05/15 04:07:53;;;;;;;58.30;49.65;;;;;;;11.44;85.98;101316.66;5071183;28;20024;-66
2023/05/15 04:10:19;;;;;;;54.38;47.17;;;;;;;11.25;85.84;101316.88;5071738;28;20032;-66
2023/05/15 04:12:47;;;;;;;57.22;49.92;;;;;;;11.30;86.68;101313.94;5071789;28;20024;-66
2023/05/15 04:15:23;;;;;;;55.58;49.58;;;;;;;11.41;86.46;101319.47;5071758;28;20048;-66
2023/05/15 04:17:50;;;;;;;56.25;48.75;;;;;;;11.25;86.64;101318.66;5071558;28;20034;-65
2023/05/15 04:20:20;;;;;;;56.95;50.75;;;;;;;11.30;86.58;101320.13;5071588;28;20032;-65
2023/05/15 04:22:49;;;;;;;61.05;50.83;;;;;;;11.26;87.06;101312.38;5073703;28;20090;-66
2023/05/15 04:25:17;;;;;;;61.50;50.70;;;;;;;11.31;87.06;101315.66;5073923;28;20023;-66
2023/05/15 04:27:43;;;;;;;56.85;50.13;;;;;;;11.31;87.13;101319.16;5075092;28;20113;-66
2023/05/15 04:30:10;;;;;;;59.00;52.45;;;;;;;11.22;88.19;101327.69;5075283;28;20039;-66
2023/05/15 04:32:38;;;;;;;59.60;53.00;;;;;;;11.11;88.95;101330.13;5075101;28;20059;-65
2023/05/15 04:35:05;;;;;;;61.63;53.95;;;;;;;11.11;88.81;101335.44;5074312;28;20029;-66
2023/05/15 04:37:31;;;;;;;61.55;54.25;;;;;;;11.12;88.80;101331.84;5073441;28;20033;-66
2023/05/15 04:39:56;;;;;;;60.30;53.80;;;;;;;11.18;88.76;101335.94;5074207;28;20025;-66
2023/05/15 04:42:22;;;;;;;62.20;55.55;;;;;;;11.12;88.69;101335.38;5074810;28;20148;-66
2023/05/15 04:44:47;;;;;;;64.60;53.55;;;;;;;11.16;88.85;101344.03;5073700;28;20020;-66
2023/05/15 04:47:12;;;;;;;62.75;54.35;;;;;;;11.17;88.85;101353.72;5074995;28;20091;-66
2023/05/15 04:49:40;;;;;;;65.80;56.92;;;;;;;11.06;89.10;101349.03;5075430;28;20016;-66
2023/05/15 04:52:05;;;;;;;67.50;58.90;;;;;;;11.10;89.47;101350.56;5074565;28;20154;-65
2023/05/15 04:54:31;;;;;;;64.55;55.88;;;;;;;11.06;89.40;101346.38;5073650;28;20044;-66
2023/05/15 04:56:56;;;;;;;66.95;57.38;;;;;;;11.14;89.27;101348.56;5074684;28;20463;-66
2023/05/15 04:59:23;;;;;;;67.63;55.55;;;;;;;11.24;89.60;101343.59;5073253;28;20028;-66
2023/05/15 05:01:51;;;;;;;62.75;55.90;;;;;;;11.45;89.32;101349.47;5074691;28;20040;-65
2023/05/15 05:04:19;;;;;;;63.15;56.20;;;;;;;11.22;89.36;101351.66;5074639;28;20197;-66
2023/05/15 05:06:48;;;;;;;62.20;55.25;;;;;;;11.34;89.63;101355.41;5074073;28;20096;-66
2023/05/15 05:09:18;;;;;;;63.88;56.67;;;;;;;11.40;90.24;101356.88;5074792;28;20016;-66
2023/05/15 05:11:43;;;;;;;66.50;59.35;;;;;;;11.27;89.72;101340.75;5074622;28;20024;-66
2023/05/15 05:14:13;;;;;;;68.13;59.22;;;;;;;11.31;89.54;101356.44;5074864;28;20032;-65
2023/05/15 05:16:43;;;;;;;66.78;58.97;;;;;;;11.29;90.14;101354.81;5074890;28;20074;-66
2023/05/15 05:19:11;;;;;;;68.05;58.67;;;;;;;11.24;90.19;101351.59;5074619;28;20021;-66
2023/05/15 05:21:40;;;;;;;70.07;60.53;;;;;;;11.26;90.18;101357.66;5074107;28;20086;-66
2023/05/15 05:24:05;;;;;;;67.43;60.00;;;;;;;11.14;90.72;101360.06;5073275;28;20055;-66
2023/05/15 05:26:33;;;;;;;70.78;61.78;;;;;;;11.19;90.87;101367.81;5073347;28;20464;-66
2023/05/15 05:28:58;;;;;;;68.40;60.25;;;;;;;11.39;90.48;101365.81;5074659;28;20047;-66
2023/05/15 05:31:24;;;;;;;68.45;57.65;;;;;;;11.30;90.73;101377.84;5073107;28;20048;-66
2023/05/15 05:33:50;;;;;;;69.03;57.35;;;;;;;11.45;90.28;101376.09;5073031;28;20036;-66
2023/05/15 05:36:18;;;;;;;66.55;58.63;;;;;;;11.35;90.58;101373.97;5073248;28;20034;-66
2023/05/15 05:38:43;;;;;;;68.05;56.40;;;;;;;11.25;90.44;101369.25;5071947;28;20149;-66
2023/05/15 05:41:09;;;;;;;65.13;54.70;;;;;;;11.33;90.49;101377.69;5073095;28;20024;-66
2023/05/15 05:43:34;;;;;;;64.53;54.92;;;;;;;11.29;90.43;101379.63;5072785;28;20024;-66
2023/05/15 05:46:01;;;;;;;64.15;51.85;;;;;;;11.30;90.23;101392.03;5072089;28;20024;-66
2023/05/15 05:48:26;;;;;;;59.85;50.83;;;;;;;11.32;89.81;101392.81;5072075;28;20056;-65
2023/05/15 05:50:52;;;;;;;58.05;49.47;;;;;;;11.28;89.76;101385.06;5072987;28;20163;-65
2023/05/15 05:53:20;;;;;;;54.13;46.88;;;;;;;11.21;88.79;101391.69;5072509;28;20024;-65
2023/05/15 05:55:46;;;;;;;57.97;47.58;;;;;;;11.11;88.99;101375.38;5052819;28;20033;-65
2023/05/15 05:58:11;;;;;;;56.53;49.03;;;;;;;11.19;89.07;101381.13;5053029;28;20498;-66
2023/05/15 06:00:36;;;;;;;53.97;47.15;;;;;;;11.31;89.27;101390.22;5052925;28;20032;-65
2023/05/15 06:03:02;;;;;;;54.28;48.17;;;;;;;11.40;88.83;101392.34;5063156;28;20036;-66
2023/05/15 06:05:28;;;;;;;56.80;48.03;;;;;;;11.33;88.58;101383.00;5072082;28;20020;-66
2023/05/15 06:07:54;;;;;;;50.92;45.50;;;;;;;11.41;88.38;101380.72;5071028;28;20085;-65
2023/05/15 06:10:20;;;;;;;51.92;45.45;;;;;;;11.42;88.28;101386.94;5071136;28;20060;-65
2023/05/15 06:12:48;;;;;;;50.42;44.90;;;;;;;11.47;89.15;101383.06;5071404;28;20460;-66
2023/05/15 06:15:15;;;;;;;49.75;44.35;;;;;;;11.63;88.71;101390.16;5072384;28;20039;-65
2023/05/15 06:17:43;;;;;;;49.30;43.67;;;;;;;11.58;87.62;101387.75;5072295;28;20043;-66
2023/05/15 06:20:11;;;;;;;46.90;42.00;;;;;;;11.56;86.69;101389.66;5072575;28;20036;-66
2023/05/15 06:22:36;;;;;;;46.30;41.42;;;;;;;11.64;86.41;101386.53;5071278;28;20033;-66
2023/05/15 06:25:04;;;;;;;44.42;39.78;;;;;;;11.67;85.58;101389.00;5071144;28;20285;-66
2023/05/15 06:27:30;;;;;;;46.15;40.13;;;;;;;11.82;85.36;101396.97;5072022;28;20111;-66
2023/05/15 06:29:56;;;;;;;44.92;40.17;;;;;;;11.72;85.07;101390.47;5071079;28;20024;-66
2023/05/15 06:32:21;;;;;;;45.17;40.58;;;;;;;11.82;84.20;101388.97;5070662;28;20463;-66
2023/05/15 06:34:47;;;;;;;43.20;38.83;;;;;;;11.82;84.92;101383.66;5033120;28;1137059;-66
2023/05/15 06:37:12;;;;;;;44.97;39.92;;;;;;;11.83;83.97;101395.16;5071631;28;20054;-65
2023/05/15 06:39:38;;;;;;;45.40;40.55;;;;;;;11.86;84.27;101394.16;5072937;28;20033;-65
2023/05/15 06:42:03;;;;;;;52.38;40.13;;;;;;;11.83;84.11;101388.03;5073018;28;20029;-65
2023/05/15 06:44:32;;;;;;;43.25;38.75;;;;;;;11.79;83.36;101374.97;5070580;28;20085;-66
2023/05/15 06:46:57;;;;;;;43.47;39.15;;;;;;;11.92;83.97;101375.13;5072607;28;20077;-65
2023/05/15 06:49:24;;;;;;;45.40;40.67;;;;;;;12.05;84.33;101381.41;5072953;28;20032;-65
2023/05/15 06:51:53;;;;;;;43.97;39.22;;;;;;;12.20;83.50;101382.28;5071968;28;20420;-65
2023/05/15 06:54:19;;;;;;;44.90;40.45;;;;;;;12.07;82.11;101387.53;5070842;28;20460;-65
2023/05/15 06:56:44;;;;;;;45.42;40.92;;;;;;;12.12;81.96;101379.22;5068297;28;20028;-66
2023/05/15 06:59:10;;;;;;;45.45;40.65;;;;;;;12.08;81.57;101389.22;5069891;28;20391;-66
2023/05/15 07:01:35;;;;;;;45.38;40.53;;;;;;;12.08;82.49;101388.38;5071532;28;20039;-66
2023/05/15 07:04:01;;;;;;;48.20;42.88;;;;;;;12.11;82.39;101388.19;5071826;28;20036;-65
2023/05/15 07:06:27;;;;;;;47.83;42.78;;;;;;;12.15;81.37;101379.94;5071368;28;20107;-65
2023/05/15 07:08:52;;;;;;;49.05;44.05;;;;;;;12.35;81.68;101385.81;5072088;28;20107;-66
2023/05/15 07:11:18;;;;;;;51.13;45.65;;;;;;;12.70;80.45;101388.94;5104289;28;20112;-67
2023/05/15 07:13:45;;;;;;;51.22;45.92;;;;;;;13.01;80.99;101389.69;5087577;28;20376;-65
2023/05/15 07:16:16;;;;;;;52.90;47.42;;;;;;;13.36;80.36;101388.25;5071629;28;20033;-65
2023/05/15 07:18:41;;;;;;;55.08;48.15;;;;;;;13.38;77.51;101388.16;5071541;28;20124;-66
2023/05/15 07:21:08;;;;;;;51.63;46.05;;;;;;;13.39;77.53;101393.41;5100998;28;20107;-65
2023/05/15 07:23:36;;;;;;;50.25;45.08;;;;;;;13.53;75.74;101388.94;5071083;28;20423;-66
2023/05/15 07:26:01;;;;;;;54.55;49.08;;;;;;;13.67;76.85;101380.00;5071557;28;20450;-65
2023/05/15 07:28:27;;;;;;;52.90;47.63;;;;;;;13.95;76.57;101379.00;5070171;28;20046;-65
2023/05/15 07:30:52;;;;;;;55.17;49.30;;;;;;;14.22;75.40;101379.75;5070715;28;20024;-66
2023/05/15 07:33:18;;;;;;;53.17;47.72;;;;;;;14.25;74.43;101370.66;5069908;28;20096;-65
2023/05/15 07:35:46;;;;;;;52.92;47.45;;;;;;;14.54;74.55;101373.97;5070459;28;20029;-65
2023/05/15 07:38:11;;;;;;;53.95;48.00;;;;;;;14.38;73.94;101365.28;5069015;28;20116;-66
2023/05/15 07:40:37;;;;;;;53.55;48.15;;;;;;;14.38;73.11;101367.94;5069398;28;20143;-66
2023/05/15 07:43:02;;;;;;;53.08;47.72;;;;;;;14.49;71.87;101362.69;5070430;28;20031;-66
2023/05/15 07:45:28;;;;;;;58.47;48.70;;;;;;;14.67;72.03;101372.13;5103524;28;20020;-66
2023/05/15 07:47:53;;;;;;;189.13;56.13;;;;;;;14.77;71.52;101365.16;5070739;28;20024;-66
2023/05/15 07:50:21;;;;;;;55.70;49.92;;;;;;;14.87;71.73;101370.69;5070525;28;20040;-66
2023/05/15 07:52:49;;;;;;;58.22;52.35;;;;;;;14.93;70.29;101358.66;5070426;28;20048;-66
2023/05/15 07:55:17;;;;;;;54.75;49.28;;;;;;;14.99;71.18;101366.25;5069066;28;20013;-66
2023/05/15 07:57:43;;;;;;;54.72;49.00;;;;;;;15.05;70.23;101365.78;5070883;28;20092;-66
2023/05/15 08:00:12;;;;;;;55.58;50.05;;;;;;;15.00;70.65;101362.63;5103485;28;20016;-66
2023/05/15 08:02:38;;;;;;;57.55;51.65;;;;;;;15.11;69.92;101367.16;5104042;28;20110;-66
2023/05/15 08:05:06;;;;;;;58.50;52.45;;;;;;;15.20;70.48;101371.84;5070751;28;20025;-66
2023/05/15 08:07:35;;;;;;;58.65;52.50;;;;;;;15.39;70.71;101363.31;5070399;28;20430;-66
2023/05/15 08:10:00;;;;;;;57.03;51.20;;;;;;;15.49;69.51;101366.13;5069346;28;20044;-66
2023/05/15 08:12:26;;;;;;;58.50;52.70;;;;;;;15.66;69.56;101369.25;5102680;28;20024;-65
2023/05/15 08:14:53;;;;;;;56.63;51.08;;;;;;;15.61;68.19;101371.41;5068222;28;20016;-66
2023/05/15 08:17:19;;;;;;;59.78;53.67;;;;;;;15.43;67.19;101367.44;5068917;28;20052;-66
2023/05/15 08:19:45;;;;;;;55.78;49.97;;;;;;;15.58;67.00;101366.28;5070314;28;20035;-66
2023/05/15 08:22:11;;;;;;;55.03;49.10;;;;;;;15.62;66.19;101369.63;5070266;28;20031;-66
2023/05/15 08:24:37;;;;;;;52.95;47.65;;;;;;;15.84;67.30;101364.34;5071012;28;20017;-66
2023/05/15 08:27:07;;;;;;;55.35;49.85;;;;;;;15.80;66.11;101376.28;5070716;28;20082;-66
2023/05/15 08:29:34;;;;;;;54.90;49.35;;;;;;;15.99;65.77;101370.34;5070154;28;20032;-65
2023/05/15 08:32:00;;;;;;;53.13;47.45;;;;;;;16.23;65.25;101366.72;5102422;28;20028;-65
2023/05/15 08:34:25;;;;;;;51.80;46.30;;;;;;;16.30;63.96;101357.22;5070526;28;20072;-66
2023/05/15 08:36:51;;;;;;;53.75;48.30;;;;;;;16.51;64.87;101368.94;5065060;28;20095;-66
2023/05/15 08:39:17;;;;;;;54.70;48.80;;;;;;;16.35;64.88;101357.69;5070663;28;20021;-65
2023/05/15 08:41:54;;;;;;;52.13;46.58;;;;;;;16.63;65.55;101374.31;5069900;28;20468;-65
2023/05/15 08:44:20;;;;;;;48.83;42.20;;;;;;;16.74;63.47;101374.28;5068175;28;20108;-65
2023/05/15 08:46:46;;;;;;;50.53;45.20;;;;;;;16.62;64.26;101373.44;5069653;28;20043;-65
2023/05/15 08:49:24;;;;;;;50.45;45.15;;;;;;;16.49;64.15;101370.03;5070375;28;20029;-65
2023/05/15 08:51:49;;;;;;;51.38;45.85;;;;;;;16.40;66.21;101373.44;5069493;28;20105;-65
2023/05/15 08:54:15;;;;;;;50.05;45.10;;;;;;;16.50;66.07;101372.59;5070559;28;20655;-65
2023/05/15 08:56:44;;;;;;;49.80;44.47;;;;;;;16.32;64.43;101360.63;5052992;28;20025;-66
2023/05/15 08:59:10;;;;;;;47.97;42.83;;;;;;;16.60;65.21;101367.34;5070608;28;20388;-66
2023/05/15 09:01:36;;;;;;;49.08;43.95;;;;;;;16.72;64.42;101363.66;5070585;28;20021;-66
2023/05/15 09:04:03;;;;;;;48.65;43.40;;;;;;;16.89;63.07;101370.41;5068957;28;20021;-65
2023/05/15 09:06:29;;;;;;;47.55;42.55;;;;;;;17.19;62.84;101364.31;5069193;28;20051;-65
2023/05/15 09:08:55;;;;;;;45.78;41.22;;;;;;;17.28;61.35;101370.78;5074159;28;20392;-65
2023/05/15 09:11:25;;;;;;;46.05;41.20;;;;;;;17.30;63.33;101376.88;5072232;28;20028;-66
2023/05/15 09:13:52;;;;;;;44.92;40.45;;;;;;;17.23;62.54;101365.75;5073053;28;20028;-65
2023/05/15 09:16:19;;;;;;;47.72;41.90;;;;;;;17.28;62.26;101373.47;5074265;28;20055;-66
2023/05/15 09:18:46;;;;;;;44.92;40.45;;;;;;;17.25;61.25;101365.66;5074811;28;20427;-65
2023/05/15 09:21:26;;;;;;;43.17;38.72;;;;;;;17.49;61.88;101360.91;5073560;28;20066;-65
2023/05/15 09:23:53;;;;;;;44.15;39.63;;;;;;;17.38;61.67;101362.78;5074482;28;20029;-65
2023/05/15 09:26:20;;;;;;;42.20;37.88;;;;;;;17.31;61.07;101362.44;5074241;28;20387;-65
2023/05/15 09:28:45;;;;;;;43.25;38.63;;;;;;;17.23;62.66;101368.44;5074613;28;20032;-65
2023/05/15 09:31:15;;;;;;;41.65;37.38;;;;;;;17.01;62.16;101366.69;5073325;28;20115;-65
2023/05/15 09:33:41;;;;;;;41.78;37.38;;;;;;;16.95;62.59;101367.19;5074350;28;20020;-65
2023/05/15 09:36:08;;;;;;;38.90;34.70;;;;;;;16.85;63.10;101366.22;5072951;28;20051;-65
2023/05/15 09:38:38;;;;;;;41.58;37.00;;;;;;;16.59;63.52;101352.22;5073346;28;20126;-65
2023/05/15 09:41:06;;;;;;;40.25;36.10;;;;;;;16.59;64.45;101365.63;5072645;28;20025;-65
2023/05/15 09:43:40;;;;;;;41.50;37.08;;;;;;;16.47;64.00;101362.09;5074077;28;20029;-65
2023/05/15 09:46:11;;;;;;;42.63;37.97;;;;;;;16.34;64.65;101372.09;5072770;28;20024;-66
2023/05/15 09:48:37;;;;;;;43.17;38.55;;;;;;;16.24;64.92;101369.28;5074097;28;20024;-66
2023/05/15 09:51:06;;;;;;;39.72;35.05;;;;;;;16.23;66.13;101364.03;5074053;28;20071;-66
2023/05/15 09:53:31;;;;;;;42.08;37.97;;;;;;;16.17;65.52;101353.78;5073287;28;20078;-66
2023/05/15 09:55:57;;;;;;;41.92;37.13;;;;;;;16.17;66.83;101354.63;5073760;28;20487;-66
2023/05/15 09:58:22;;;;;;;43.65;39.30;;;;;;;16.20;66.47;101359.75;5106274;28;20051;-67
2023/05/15 10:00:48;;;;;;;42.90;38.40;;;;;;;16.04;65.67;101357.44;5073927;28;20103;-65
2023/05/15 10:03:19;;;;;;;47.45;39.20;;;;;;;16.10;66.51;101367.69;5073667;28;20034;-66
2023/05/15 10:05:44;;;;;;;41.05;37.05;;;;;;;16.18;67.70;101367.09;5072405;28;20020;-66
2023/05/15 10:08:10;;;;;;;41.58;37.22;;;;;;;16.15;66.48;101363.78;5073352;28;20070;-66
2023/05/15 10:10:36;;;;;;;39.97;35.85;;;;;;;16.13;66.04;101362.06;5072240;28;20460;-65
2023/05/15 10:13:03;;;;;;;41.13;36.72;;;;;;;16.17;66.87;101368.03;5106130;28;20017;-64
2023/05/15 10:15:29;;;;;;;41.60;37.42;;;;;;;16.21;66.66;101376.72;5106240;28;20475;-66
2023/05/15 10:17:55;;;;;;;39.42;35.38;;;;;;;16.26;66.40;101375.38;5073501;28;20024;-66
2023/05/15 10:20:25;;;;;;;41.35;37.05;;;;;;;16.03;66.46;101373.63;5072220;28;20032;-65
2023/05/15 10:22:53;;;;;;;40.60;36.40;;;;;;;16.14;67.29;101384.38;5105699;28;20024;-66
2023/05/15 10:25:38;;;;;;;37.13;33.22;;;;;;;16.21;67.11;101372.22;5073172;28;20028;-66
2023/05/15 10:28:08;;;;;;;36.67;33.17;;;;;;;16.18;67.92;101380.50;5073211;28;20021;-65
2023/05/15 10:30:35;;;;;;;36.78;33.05;;;;;;;16.10;66.91;101374.88;5073261;28;20024;-66
2023/05/15 10:33:03;;;;;;;38.42;34.70;;;;;;;16.16;67.66;101373.56;5073363;28;20352;-65
2023/05/15 10:35:29;;;;;;;35.42;31.73;;;;;;;16.14;67.71;101376.34;5105645;28;20078;-65
2023/05/15 10:37:56;;;;;;;34.42;31.00;;;;;;;16.21;68.30;101374.91;5072951;28;20028;-66
2023/05/15 10:40:22;;;;;;;37.33;33.55;;;;;;;16.15;67.96;101382.56;5072861;28;20392;-66
2023/05/15 10:42:48;;;;;;;37.67;33.78;;;;;;;16.13;67.34;101372.81;5073541;28;20020;-65
2023/05/15 10:45:14;;;;;;;36.60;32.70;;;;;;;16.20;67.94;101375.00;5072863;28;20031;-65
2023/05/15 10:47:41;;;;;;;39.22;35.03;;;;;;;16.16;67.89;101381.59;5105243;28;20081;-66
2023/05/15 10:50:10;;;;;;;37.40;33.63;;;;;;;16.16;68.24;101382.44;5072884;28;20035;-65
2023/05/15 10:52:36;;;;;;;;;;;;;;;16.43;67.06;101382.09;5072604;28;20029;-65
2023/05/15 10:55:06;;;;;;;36.85;33.00;;;;;;;16.06;67.07;101376.97;5071204;28;19908;-65
2023/05/15 10:57:32;;;;;;;36.67;33.13;;;;;;;15.95;69.00;101376.06;5105154;28;20481;-65
2023/05/15 11:00:00;;;;;;;37.65;33.92;;;;;;;16.00;69.99;101368.50;5072496;28;20063;-65
2023/05/15 11:02:29;;;;;;;37.28;33.47;;;;;;;16.10;69.20;101375.72;5070849;28;20059;-65
2023/05/15 11:05:02;;;;;;;37.72;34.00;;;;;;;16.10;68.90;101383.78;5071457;28;20020;-65
2023/05/15 11:07:30;;;;;;;37.08;33.35;;;;;;;15.95;69.83;101368.03;5071766;28;20063;-65
2023/05/15 11:09:56;;;;;;;39.30;35.38;;;;;;;16.06;70.45;101373.38;5072560;28;20272;-65
2023/05/15 11:12:22;;;;;;;40.70;36.35;;;;;;;15.97;68.92;101366.94;5072136;28;20043;-65